Time;durP1;ratioP1;P1;durP2;ratioP2;P2;SDS_P1;SDS_P2;PMS_P1;PMS_P2;Temp;Humidity;BMP_temperature;BMP_pressure;BME280_temperature;BME280_humidity;BME280_pressure;Samples;Min_cycle;Max_cycle;Signal;HPM_P1;HPM_P2
2021/08/09 00:00:52;;;;;;;;;;;;;;;12.98;71.52;96725.56;4971527;28;20077;-83
2021/08/09 00:03:18;;;;;;;;;;;;;;;12.98;71.59;96725.56;4969896;28;19998;-83
2021/08/09 00:05:46;;;;;;;;;;;;;;;12.97;71.78;96723.16;4962624;28;20065;-83
2021/08/09 00:08:12;;;;;;;;;;;;;;;12.97;71.46;96725.78;4970580;28;20445;-83
2021/08/09 00:10:38;;;;;;;;;;;;;;;12.95;71.84;96727.84;4966920;28;19974;-83
2021/08/09 00:13:04;;;;;;;;;;;;;;;12.95;72.65;96725.22;4933290;28;20063;-83
2021/08/09 00:15:30;;;;;;;;;;;;;;;12.96;72.16;96727.63;4948129;28;20058;-83
2021/08/09 00:17:56;;;;;;;;;;;;;;;12.98;71.81;96724.78;4948872;28;19977;-79
2021/08/09 00:20:22;;;;;;;;;;;;;;;12.96;71.41;96722.38;4964900;28;19970;-81
2021/08/09 00:22:48;;;;;;;;;;;;;;;12.96;71.58;96725.00;4969687;28;19974;-80
2021/08/09 00:25:14;;;;;;;;;;;;;;;12.96;71.68;96725.00;4945488;28;19986;-80
2021/08/09 00:27:40;;;;;;;;;;;;;;;12.96;71.87;96725.00;4964842;28;19978;-80
2021/08/09 00:30:07;;;;;;;;;;;;;;;12.95;71.57;96722.59;4965075;28;20350;-82
2021/08/09 00:32:34;;;;;;;;;;;;;;;12.94;71.59;96734.16;4934311;29;19967;-82
2021/08/09 00:35:00;;;;;;;;;;;;;;;12.93;71.46;96738.59;4950728;28;19966;-83
2021/08/09 00:37:26;;;;;;;;;;;;;;;12.93;71.45;96738.59;4964749;28;19967;-86
2021/08/09 00:39:52;;;;;;;;;;;;;;;12.91;71.76;96730.13;4938639;29;20506;-87
2021/08/09 00:42:18;;;;;;;;;;;;;;;12.91;71.49;96732.75;4946544;29;19981;-82
2021/08/09 00:44:44;;;;;;;;;;;;;;;12.90;71.35;96722.47;4952448;28;19966;-79
2021/08/09 00:47:10;;;;;;;;;;;;;;;12.88;71.66;96730.59;4958705;28;19975;-81
2021/08/09 00:49:36;;;;;;;;;;;;;;;12.88;71.71;96724.53;4954010;29;19979;-82
2021/08/09 00:52:04;;;;;;;;;;;;;;;12.87;71.82;96736.88;4951863;29;19970;-82
2021/08/09 00:54:30;;;;;;;;;;;;;;;12.86;71.51;96732.63;4957218;28;19966;-83
2021/08/09 00:56:56;;;;;;;;;;;;;;;12.85;71.71;96735.47;4972018;28;19971;-80
2021/08/09 00:59:22;;;;;;;;;;;;;;;12.84;71.80;96731.25;4948054;28;20021;-83
2021/08/09 01:01:48;;;;;;;;;;;;;;;12.82;72.18;96733.31;4948254;28;19974;-82
2021/08/09 01:04:14;;;;;;;;;;;;;;;12.80;72.07;96733.53;4957790;28;20445;-81
2021/08/09 01:06:40;;;;;;;;;;;;;;;12.80;71.84;96738.78;4956284;28;19967;-80
2021/08/09 01:09:10;;;;;;;;;;;;;;;12.77;72.30;96744.53;4970435;28;19986;-82
2021/08/09 01:11:36;;;;;;;;;;;;;;;12.73;72.23;96730.22;4955907;28;19966;-82
2021/08/09 01:14:22;;;;;;;;;;;;;;;12.69;71.59;96732.47;4966810;28;20025;-78
2021/08/09 01:16:59;;;;;;;;;;;;;;;12.68;71.99;96732.69;4971467;28;19972;-81
2021/08/09 01:19:39;;;;;;;;;;;;;;;12.65;72.29;96730.53;4955593;28;19962;-77
2021/08/09 01:22:10;;;;;;;;;;;;;;;12.64;72.19;96734.16;4966677;28;19973;-84
2021/08/09 01:24:56;;;;;;;;;;;;;;;12.62;71.97;96730.94;4946122;28;20378;-80
2021/08/09 01:27:22;;;;;;;;;;;;;;;12.61;72.09;96727.53;4964162;28;19981;-81
2021/08/09 01:29:48;;;;;;;;;;;;;;;12.59;72.61;96722.47;4930253;28;19983;-80
2021/08/09 01:32:16;;;;;;;;;;;;;;;12.59;72.25;96721.69;4963463;28;20339;-80
2021/08/09 01:34:43;;;;;;;;;;;;;;;12.57;72.15;96721.09;4971746;28;19966;-80
2021/08/09 01:37:09;;;;;;;;;;;;;;;12.55;72.36;96720.53;4961811;28;20342;-79
2021/08/09 01:39:36;;;;;;;;;;;;;;;12.52;72.60;96727.03;4970002;28;20423;-79
2021/08/09 01:42:02;;;;;;;;;;;;;;;12.51;72.37;96724.63;4970859;28;19967;-82
2021/08/09 01:44:28;;;;;;;;;;;;;;;12.50;72.48;96729.09;4970350;28;19982;-77
2021/08/09 01:46:54;;;;;;;;;;;;;;;12.48;72.73;96728.50;4975225;28;19966;-79
2021/08/09 01:49:21;;;;;;;;;;;;;;;12.46;72.97;96730.56;4960824;28;20025;-78
2021/08/09 01:51:48;;;;;;;;;;;;;;;12.44;72.59;96732.59;4967172;28;20370;-78
2021/08/09 01:54:15;;;;;;;;;;;;;;;12.43;73.33;96727.56;4964011;28;19971;-82
2021/08/09 01:56:41;;;;;;;;;;;;;;;12.37;73.50;96724.81;4960386;28;19981;-79
2021/08/09 01:59:07;;;;;;;;;;;;;;;12.28;74.55;96741.91;4952672;28;19981;-82
2021/08/09 02:01:33;;;;;;;;;;;;;;;12.22;73.80;96734.09;4944480;28;20027;-79
2021/08/09 02:03:59;;;;;;;;;;;;;;;12.18;73.77;96739.81;4972904;28;19967;-82
2021/08/09 02:06:25;;;;;;;;;;;;;;;12.17;74.04;96740.81;4960741;28;19971;-79
2021/08/09 02:08:51;;;;;;;;;;;;;;;12.18;73.94;96739.00;4963800;28;19983;-82
2021/08/09 02:11:20;;;;;;;;;;;;;;;12.20;74.53;96744.84;4968250;28;20089;-80
2021/08/09 02:13:55;;;;;;;;;;;;;;;12.22;74.46;96749.88;4969527;28;19966;-79
2021/08/09 02:16:21;;;;;;;;;;;;;;;12.22;74.05;96742.81;4970929;28;19969;-77
2021/08/09 02:18:50;;;;;;;;;;;;;;;12.22;74.21;96739.34;4972895;28;19963;-78
2021/08/09 02:21:19;;;;;;;;;;;;;;;12.21;74.54;96740.38;4969180;28;19966;-78
2021/08/09 02:23:46;;;;;;;;;;;;;;;12.20;74.68;96742.22;4973863;28;19971;-79
2021/08/09 02:26:15;;;;;;;;;;;;;;;12.16;74.56;96751.56;4967727;28;19997;-78
2021/08/09 02:28:43;;;;;;;;;;;;;;;12.13;74.51;96752.00;4968149;28;19982;-84
2021/08/09 02:31:10;;;;;;;;;;;;;;;12.11;75.55;96752.22;4953683;28;19970;-81
2021/08/09 02:33:37;;;;;;;;;;;;;;;12.11;74.72;96740.91;4948991;28;19962;-80
2021/08/09 02:36:03;;;;;;;;;;;;;;;12.10;74.39;96747.19;4967913;28;19970;-80
2021/08/09 02:38:30;;;;;;;;;;;;;;;12.08;74.38;96742.16;4950962;28;19967;-81
2021/08/09 02:40:56;;;;;;;;;;;;;;;12.07;74.60;96750.25;4961735;28;19974;-81
2021/08/09 02:43:23;;;;;;;;;;;;;;;12.05;74.87;96747.03;4959601;28;19962;-79
2021/08/09 02:45:49;;;;;;;;;;;;;;;12.05;74.59;96747.03;4976813;28;19998;-77
2021/08/09 02:48:16;;;;;;;;;;;;;;;12.03;74.79;96749.06;4966125;28;19974;-79
2021/08/09 02:50:42;;;;;;;;;;;;;;;12.02;74.69;96755.38;4959130;28;20354;-78
2021/08/09 02:53:08;;;;;;;;;;;;;;;12.02;74.69;96755.38;4958620;28;19974;-78
2021/08/09 02:55:35;;;;;;;;;;;;;;;12.00;75.06;96762.66;4977063;28;20411;-78
2021/08/09 02:58:06;;;;;;;;;;;;;;;11.96;74.85;96752.56;4966716;28;19982;-78
2021/08/09 03:00:33;;;;;;;;;;;;;;;11.94;74.67;96767.75;4963851;28;19969;-79
2021/08/09 03:02:59;;;;;;;;;;;;;;;11.92;75.03;96764.53;4968480;28;20346;-81
2021/08/09 03:05:25;;;;;;;;;;;;;;;11.90;75.26;96771.06;4969723;28;19974;-80
2021/08/09 03:07:52;;;;;;;;;;;;;;;11.85;74.97;96761.16;4948370;28;19975;-80
2021/08/09 03:10:18;;;;;;;;;;;;;;;11.82;75.20;96761.59;4965905;28;19983;-80
2021/08/09 03:12:44;;;;;;;;;;;;;;;11.79;75.28;96754.16;4966075;28;19967;-80
2021/08/09 03:15:10;;;;;;;;;;;;;;;11.77;75.05;96753.56;4961412;28;19968;-81
2021/08/09 03:17:37;;;;;;;;;;;;;;;11.74;75.04;96740.88;4959078;28;19971;-81
2021/08/09 03:20:04;;;;;;;;;;;;;;;11.74;75.00;96743.50;4967768;28;20465;-81
2021/08/09 03:22:30;;;;;;;;;;;;;;;11.73;75.41;96744.50;4968471;28;19963;-82
2021/08/09 03:24:56;;;;;;;;;;;;;;;11.71;75.51;96736.84;4957879;28;19995;-81
2021/08/09 03:27:21;;;;;;;;;;;;;;;11.72;75.73;96740.28;4971331;28;19978;-77
2021/08/09 03:29:47;;;;;;;;;;;;;;;11.70;75.98;96730.00;4966186;28;20466;-77
2021/08/09 03:32:13;;;;;;;;;;;;;;;11.69;75.66;96722.31;4964497;28;19973;-77
2021/08/09 03:34:39;;;;;;;;;;;;;;;11.69;76.28;96730.19;4968335;28;20065;-77
2021/08/09 03:37:05;;;;;;;;;;;;;;;11.67;75.87;96721.72;4969990;28;20006;-78
2021/08/09 03:39:31;;;;;;;;;;;;;;;11.67;76.54;96727.78;4966885;28;20006;-77
2021/08/09 03:41:57;;;;;;;;;;;;;;;11.65;76.30;96729.81;4967269;28;19973;-77
2021/08/09 03:44:23;;;;;;;;;;;;;;;11.66;76.06;96733.28;4968466;28;20053;-78
2021/08/09 03:46:49;;;;;;;;;;;;;;;11.67;76.26;96729.63;4965510;28;19978;-77
2021/08/09 03:49:15;;;;;;;;;;;;;;;11.67;76.43;96733.03;4975679;28;20451;-77
2021/08/09 03:51:40;;;;;;;;;;;;;;;11.67;76.28;96729.63;4966816;28;19970;-77
2021/08/09 03:54:07;;;;;;;;;;;;;;;11.68;76.80;96733.88;4965505;28;19975;-78
2021/08/09 03:56:34;;;;;;;;;;;;;;;11.69;76.40;96743.34;4963263;28;19970;-79
2021/08/09 03:58:59;;;;;;;;;;;;;;;11.67;76.47;96738.28;4965270;28;19978;-78
2021/08/09 04:01:26;;;;;;;;;;;;;;;11.64;76.49;96751.88;4961981;28;20045;-78
2021/08/09 04:03:52;;;;;;;;;;;;;;;11.62;76.59;96753.13;4956950;28;19971;-79
2021/08/09 04:06:20;;;;;;;;;;;;;;;11.56;76.47;96760.81;4967036;28;19974;-81
2021/08/09 04:08:48;;;;;;;;;;;;;;;11.52;76.83;96754.41;4944894;28;19971;-83
2021/08/09 04:11:15;;;;;;;;;;;;;;;11.50;76.71;96755.63;4967207;28;19967;-81
2021/08/09 04:13:42;;;;;;;;;;;;;;;11.49;76.33;96761.91;4968303;28;19974;-82
2021/08/09 04:16:08;;;;;;;;;;;;;;;11.48;76.44;96758.47;4947260;28;19978;-82
2021/08/09 04:18:34;;;;;;;;;;;;;;;11.48;76.30;96760.31;4948768;28;20049;-82
2021/08/09 04:20:59;;;;;;;;;;;;;;;11.46;76.65;96757.88;4962459;28;19975;-82
2021/08/09 04:23:25;;;;;;;;;;;;;;;11.47;76.35;96751.63;4946977;28;20397;-82
2021/08/09 04:25:52;;;;;;;;;;;;;;;11.46;76.25;96749.22;4942358;29;19995;-83
2021/08/09 04:28:18;;;;;;;;;;;;;;;11.49;77.71;96746.16;4945892;29;19982;-87
2021/08/09 04:30:43;;;;;;;;;;;;;;;11.52;76.57;96743.09;4914765;29;20425;-87
2021/08/09 04:33:09;;;;;;;;;;;;;;;11.53;76.47;96745.50;4954585;29;20018;-86
2021/08/09 04:35:35;;;;;;;;;;;;;;;11.53;76.53;96735.00;4928715;29;19967;-86
2021/08/09 04:38:01;;;;;;;;;;;;;;;11.53;76.76;96744.72;4941059;29;20432;-87
2021/08/09 04:40:27;;;;;;;;;;;;;;;11.53;76.38;96734.22;4947101;29;20374;-86
2021/08/09 04:42:53;;;;;;;;;;;;;;;11.55;76.49;96740.06;4949339;29;19978;-86
2021/08/09 04:45:19;;;;;;;;;;;;;;;11.61;76.34;96762.00;4929563;29;19967;-86
2021/08/09 04:47:45;;;;;;;;;;;;;;;11.70;76.08;96752.84;4947301;29;20078;-87
2021/08/09 04:50:11;;;;;;;;;;;;;;;11.79;75.96;96749.69;4927483;29;20484;-87
2021/08/09 04:52:40;;;;;;;;;;;;;;;11.87;75.86;96739.94;4923670;29;20014;-87
2021/08/09 04:55:07;;;;;;;;;;;;;;;11.93;75.88;96745.16;4946133;29;19978;-86
2021/08/09 04:57:33;;;;;;;;;;;;;;;11.98;75.87;96739.22;4920713;29;19971;-86
2021/08/09 04:59:59;;;;;;;;;;;;;;;12.02;75.43;96735.13;4961092;28;20007;-87
2021/08/09 05:02:25;;;;;;;;;;;;;;;12.06;75.43;96746.03;4955102;29;19971;-87
2021/08/09 05:04:50;;;;;;;;;;;;;;;12.12;75.11;96740.69;4938939;29;20395;-87
2021/08/09 05:07:16;;;;;;;;;;;;;;;12.16;74.91;96741.06;4927514;29;19971;-87
2021/08/09 05:09:42;;;;;;;;;;;;;;;12.22;78.26;96755.13;4951161;28;20073;-86
2021/08/09 05:12:08;;;;;;;;;;;;;;;12.59;80.60;96755.88;4951527;29;20451;-86
2021/08/09 05:14:35;;;;;;;;;;;;;;;13.22;78.14;96756.41;4966206;28;19973;-86
2021/08/09 05:17:01;;;;;;;;;;;;;;;13.88;75.36;96779.06;4950917;29;19971;-87
2021/08/09 05:19:27;;;;;;;;;;;;;;;14.45;72.18;96769.63;4928959;29;20010;-85
2021/08/09 05:21:53;;;;;;;;;;;;;;;14.81;69.22;96765.88;4947011;29;20021;-85
2021/08/09 05:24:19;;;;;;;;;;;;;;;15.09;68.27;96748.38;4937353;28;19975;-85
2021/08/09 05:26:44;;;;;;;;;;;;;;;15.32;66.97;96744.78;4954141;28;19974;-85
2021/08/09 05:29:10;;;;;;;;;;;;;;;15.50;66.85;96743.75;4964577;28;19975;-84
2021/08/09 05:31:37;;;;;;;;;;;;;;;15.73;67.03;96751.53;4949391;29;19977;-85
2021/08/09 05:34:03;;;;;;;;;;;;;;;16.11;66.84;96749.13;4960346;28;19971;-84
2021/08/09 05:36:29;;;;;;;;;;;;;;;16.36;64.56;96740.69;4954652;29;20355;-84
2021/08/09 05:38:55;;;;;;;;;;;;;;;16.57;63.60;96745.16;4944746;28;19970;-84
2021/08/09 05:41:21;;;;;;;;;;;;;;;16.78;63.79;96745.38;4973525;28;20398;-84
2021/08/09 05:43:47;;;;;;;;;;;;;;;17.04;62.91;96747.22;4956265;28;20014;-85
2021/08/09 05:46:13;;;;;;;;;;;;;;;17.27;61.65;96736.56;4947691;28;19972;-85
2021/08/09 05:48:39;;;;;;;;;;;;;;;17.20;59.33;96723.53;4965363;28;19975;-84
2021/08/09 05:51:05;;;;;;;;;;;;;;;17.02;60.99;96737.94;4956871;28;19986;-84
2021/08/09 05:53:32;;;;;;;;;;;;;;;17.07;61.41;96745.13;4968626;28;19963;-83
2021/08/09 05:55:57;;;;;;;;;;;;;;;17.35;62.46;96757.31;4929979;28;19978;-82
2021/08/09 05:58:23;;;;;;;;;;;;;;;17.56;61.18;96743.13;4932713;28;20010;-82
2021/08/09 06:00:49;;;;;;;;;;;;;;;17.83;60.58;96739.63;4944280;28;20061;-87
2021/08/09 06:03:18;;;;;;;;;;;;;;;17.93;58.84;96737.03;4949708;29;19994;-83
2021/08/09 06:05:45;;;;;;;;;;;;;;;18.17;58.85;96731.28;4941356;29;19994;-83
2021/08/09 06:08:11;;;;;;;;;;;;;;;18.37;58.40;96720.75;4964662;28;20343;-83
2021/08/09 06:10:38;;;;;;;;;;;;;;;18.34;57.99;96715.16;4956722;28;20334;-84
2021/08/09 06:13:03;;;;;;;;;;;;;;;18.28;58.31;96721.50;4960413;28;19994;-84
2021/08/09 06:15:29;;;;;;;;;;;;;;;18.18;56.75;96707.13;4942357;29;19967;-84
2021/08/09 06:17:55;;;;;;;;;;;;;;;18.30;58.39;96730.81;4950751;29;19995;-84
2021/08/09 06:20:21;;;;;;;;;;;;;;;18.51;57.94;96723.69;4952141;28;20453;-85
2021/08/09 06:22:47;;;;;;;;;;;;;;;18.61;57.00;96720.28;4962751;28;19967;-84
2021/08/09 06:25:13;;;;;;;;;;;;;;;18.65;56.67;96710.72;4947197;29;19995;-84
2021/08/09 06:27:41;;;;;;;;;;;;;;;18.28;57.02;96709.03;4951003;28;20336;-84
2021/08/09 06:30:07;;;;;;;;;;;;;;;18.01;56.73;96712.63;4969622;28;19982;-85
2021/08/09 06:32:33;;;;;;;;;;;;;;;18.05;57.81;96719.00;4951288;28;19974;-84
2021/08/09 06:34:59;;;;;;;;;;;;;;;17.96;58.21;96722.44;4958302;28;20462;-83
2021/08/09 06:37:25;;;;;;;;;;;;;;;18.14;57.88;96719.34;4946492;28;20373;-84
2021/08/09 06:39:51;;;;;;;;;;;;;;;18.47;56.27;96712.00;4964610;28;19966;-84
2021/08/09 06:42:17;;;;;;;;;;;;;;;18.69;58.07;96725.09;4957774;28;19962;-84
2021/08/09 06:44:43;;;;;;;;;;;;;;;18.84;55.86;96703.06;4940258;28;19967;-87
2021/08/09 06:47:09;;;;;;;;;;;;;;;18.86;54.88;96696.44;4948661;28;20434;-87
2021/08/09 06:49:35;;;;;;;;;;;;;;;18.79;55.40;96695.91;4962296;28;19983;-87
2021/08/09 06:52:01;;;;;;;;;;;;;;;18.65;55.74;96703.53;4937726;29;20324;-87
2021/08/09 06:54:27;;;;;;;;;;;;;;;18.73;56.43;96702.25;4968073;28;19974;-87
2021/08/09 06:56:52;;;;;;;;;;;;;;;18.83;55.17;96693.50;4938469;28;19974;-86
2021/08/09 06:59:18;;;;;;;;;;;;;;;18.62;55.90;96706.72;4950045;28;20419;-86
2021/08/09 07:01:45;;;;;;;;;;;;;;;18.46;56.97;96721.84;4947465;28;19973;-86
2021/08/09 07:04:10;;;;;;;;;;;;;;;18.70;56.56;96713.38;4958904;28;19990;-87
2021/08/09 07:06:36;;;;;;;;;;;;;;;18.91;55.36;96700.94;4959161;28;20415;-87
2021/08/09 07:09:03;;;;;;;;;;;;;;;19.06;53.82;96684.22;4972259;28;19990;-83
2021/08/09 07:11:30;;;;;;;;;;;;;;;19.10;55.33;96706.53;4926644;28;20427;-86
2021/08/09 07:13:56;;;;;;;;;;;;;;;19.16;54.13;96691.38;4976486;28;19966;-86
2021/08/09 07:16:25;;;;;;;;;;;;;;;18.99;53.85;96695.09;4944721;29;19977;-86
2021/08/09 07:18:52;;;;;;;;;;;;;;;18.85;55.36;96702.78;4954866;29;19970;-86
2021/08/09 07:21:18;;;;;;;;;;;;;;;18.90;54.51;96694.06;4949928;28;19966;-86
2021/08/09 07:23:44;;;;;;;;;;;;;;;18.86;56.22;96708.94;4945913;28;20411;-86
2021/08/09 07:26:10;;;;;;;;;;;;;;;19.04;56.30;96715.56;4949499;28;19992;-86
2021/08/09 07:28:36;;;;;;;;;;;;;;;19.20;55.55;96703.88;4952230;29;19974;-86
2021/08/09 07:31:02;;;;;;;;;;;;;;;19.21;53.87;96696.69;4954595;28;19990;-87
2021/08/09 07:33:28;;;;;;;;;;;;;;;19.28;54.72;96694.56;4947607;28;19967;-86
2021/08/09 07:35:54;;;;;;;;;;;;;;;19.56;55.49;96701.19;4946713;28;19974;-86
2021/08/09 07:38:20;;;;;;;;;;;;;;;19.64;53.76;96691.88;4948237;28;20019;-85
2021/08/09 07:40:46;;;;;;;;;;;;;;;19.63;54.00;96695.56;4942577;28;19966;-86
2021/08/09 07:43:12;;;;;;;;;;;;;;;19.63;53.95;96704.38;4968021;28;19966;-86
2021/08/09 07:45:38;;;;;;;;;;;;;;;19.78;54.06;96710.72;4966746;28;19990;-86
2021/08/09 07:48:04;;;;;;;;;;;;;;;19.99;54.31;96709.63;4954186;28;19973;-86
2021/08/09 07:50:30;;;;;;;;;;;;;;;20.14;52.85;96694.63;4968845;28;19986;-86
2021/08/09 07:52:56;;;;;;;;;;;;;;;20.10;54.92;96712.25;4963731;28;19973;-86
2021/08/09 07:55:22;;;;;;;;;;;;;;;20.13;52.00;96685.84;4945155;28;19975;-80
2021/08/09 07:57:48;;;;;;;;;;;;;;;20.17;54.01;96697.56;4954043;29;19974;-79
2021/08/09 08:00:17;;;;;;;;;;;;;;;20.38;53.35;96698.25;4948207;29;20061;-80
2021/08/09 08:02:43;;;;;;;;;;;;;;;20.41;52.05;96687.06;4957866;28;19967;-80
2021/08/09 08:05:10;;;;;;;;;;;;;;;20.54;53.49;96700.84;4970562;28;19978;-80
2021/08/09 08:07:36;;;;;;;;;;;;;;;20.52;51.92;96679.03;4961429;28;19966;-80
2021/08/09 08:10:02;;;;;;;;;;;;;;;20.46;52.17;96679.03;4968553;28;20507;-80
2021/08/09 08:12:29;;;;;;;;;;;;;;;20.43;52.97;96687.59;4930699;28;19962;-80
2021/08/09 08:14:54;;;;;;;;;;;;;;;20.38;52.46;96679.59;4969918;28;19970;-80
2021/08/09 08:17:23;;;;;;;;;;;;;;;20.39;52.21;96675.06;4948700;28;19999;-80
2021/08/09 08:19:49;;;;;;;;;;;;;;;20.51;52.87;96680.06;4931298;28;19970;-81
2021/08/09 08:22:15;;;;;;;;;;;;;;;20.57;52.22;96684.31;4969978;28;20423;-81
2021/08/09 08:24:42;;;;;;;;;;;;;;;20.43;52.44;96673.44;4963768;28;19994;-81
2021/08/09 08:27:08;;;;;;;;;;;;;;;20.55;53.12;96683.78;4945336;28;19977;-81
2021/08/09 08:29:34;;;;;;;;;;;;;;;20.48;52.82;96681.44;4953966;29;19978;-81
2021/08/09 08:32:00;;;;;;;;;;;;;;;20.44;52.40;96675.06;4938776;28;20465;-80
2021/08/09 08:34:26;;;;;;;;;;;;;;;20.62;53.81;96687.78;4939942;28;19975;-81
2021/08/09 08:36:52;;;;;;;;;;;;;;;20.53;51.59;96669.94;4947028;28;19977;-82
2021/08/09 08:39:18;;;;;;;;;;;;;;;20.45;52.11;96676.63;4938384;29;19974;-81
2021/08/09 08:41:44;;;;;;;;;;;;;;;20.53;53.45;96685.94;4941940;29;19977;-81
2021/08/09 08:44:16;;;;;;;;;;;;;;;20.61;51.85;96672.06;4949444;28;19970;-81
2021/08/09 08:46:42;;;;;;;;;;;;;;;20.73;54.22;96707.16;4957232;28;19974;-80
2021/08/09 08:49:14;;;;;;;;;;;;;;;20.75;52.61;96682.91;4962157;28;19966;-79
2021/08/09 08:51:46;;;;;;;;;;;;;;;20.87;52.62;96678.81;4944545;28;20009;-80
2021/08/09 08:54:12;;;;;;;;;;;;;;;20.95;50.12;96657.94;4969458;28;19977;-80
2021/08/09 08:56:39;;;;;;;;;;;;;;;20.95;50.53;96660.63;4941499;28;19978;-79
2021/08/09 08:59:07;;;;;;;;;;;;;;;21.21;52.92;96677.22;4963305;28;19974;-80
2021/08/09 09:01:34;;;;;;;;;;;;;;;21.34;50.03;96663.22;4974604;28;19966;-80
2021/08/09 09:04:01;;;;;;;;;;;;;;;21.41;51.31;96678.88;4948070;28;19982;-80
2021/08/09 09:06:27;;;;;;;;;;;;;;;21.19;49.86;96658.81;4957729;28;19994;-80
2021/08/09 09:08:53;;;;;;;;;;;;;;;20.98;51.29;96676.84;4957099;28;19967;-79
2021/08/09 09:11:22;;;;;;;;;;;;;;;20.94;51.08;96675.81;4962914;28;19982;-79
2021/08/09 09:13:55;;;;;;;;;;;;;;;20.94;50.41;96669.69;4961018;28;19967;-80
2021/08/09 09:16:21;;;;;;;;;;;;;;;20.96;51.89;96680.88;4948442;28;19967;-79
2021/08/09 09:18:48;;;;;;;;;;;;;;;20.91;50.45;96676.38;4961662;28;19970;-80
2021/08/09 09:21:26;;;;;;;;;;;;;;;20.96;51.85;96700.34;4956116;28;19973;-79
2021/08/09 09:23:53;;;;;;;;;;;;;;;21.11;50.32;96674.63;4953618;29;19978;-80
2021/08/09 09:26:25;;;;;;;;;;;;;;;21.37;51.39;96691.19;4963253;28;19994;-80
2021/08/09 09:28:52;;;;;;;;;;;;;;;21.55;50.88;96681.72;4947880;28;19977;-79
2021/08/09 09:31:31;;;;;;;;;;;;;;;21.62;49.98;96680.28;4966217;28;19985;-80
2021/08/09 09:33:57;;;;;;;;;;;;;;;21.94;48.62;96662.06;4948521;28;19977;-78
2021/08/09 09:36:23;;;;;;;;;;;;;;;22.27;50.38;96681.72;4961412;28;20074;-79
2021/08/09 09:38:52;;;;;;;;;;;;;;;22.55;47.38;96663.16;4965648;28;19977;-80
2021/08/09 09:41:21;;;;;;;;;;;;;;;22.73;49.69;96683.75;4961422;28;19966;-81
2021/08/09 09:43:48;;;;;;;;;;;;;;;22.89;47.01;96660.25;4963542;28;20351;-81
2021/08/09 09:46:28;;;;;;;;;;;;;;;22.80;48.02;96686.84;4964869;28;19974;-81
2021/08/09 09:49:02;;;;;;;;;;;;;;;22.79;43.65;96697.84;4950248;29;19963;-81
2021/08/09 09:51:28;;;;;;;;;;;;;;;22.74;44.05;96704.06;4946391;28;19982;-81
2021/08/09 09:54:06;;;;;;;;;;;;;;;22.64;44.18;96720.25;4947082;28;19971;-81
2021/08/09 09:56:32;;;;;;;;;;;;;;;22.45;43.57;96717.56;4964245;28;19981;-81
2021/08/09 09:58:58;;;;;;;;;;;;;;;22.36;45.34;96721.94;4952090;29;19977;-81
2021/08/09 10:01:25;;;;;;;;;;;;;;;22.24;44.49;96711.69;4954989;28;19971;-81
2021/08/09 10:03:51;;;;;;;;;;;;;;;22.09;47.37;96737.47;4949167;28;19971;-81
2021/08/09 10:06:17;;;;;;;;;;;;;;;22.30;47.32;96742.59;4969553;28;19970;-81
2021/08/09 10:08:44;;;;;;;;;;;;;;;22.67;46.97;96725.78;4962650;28;19971;-81
2021/08/09 10:11:10;;;;;;;;;;;;;;;22.87;47.50;96738.09;4943444;28;19982;-80
2021/08/09 10:13:37;;;;;;;;;;;;;;;22.76;44.11;96719.78;4933557;28;19971;-81
2021/08/09 10:16:04;;;;;;;;;;;;;;;22.71;46.17;96731.38;4939865;29;19970;-81
2021/08/09 10:18:32;;;;;;;;;;;;;;;22.72;44.93;96722.28;4958620;28;19974;-81
2021/08/09 10:20:59;;;;;;;;;;;;;;;22.68;45.62;96730.06;4951293;29;19973;-81
2021/08/09 10:23:35;;;;;;;;;;;;;;;22.57;44.52;96728.59;4949698;28;19966;-81
2021/08/09 10:26:01;;;;;;;;;;;;;;;22.47;45.56;96734.91;4961902;28;19990;-81
2021/08/09 10:28:47;;;;;;;;;;;;;;;22.61;43.19;96713.59;4952650;29;19971;-80
2021/08/09 10:31:28;;;;;;;;;;;;;;;22.73;44.12;96726.53;4933962;28;19987;-81
2021/08/09 10:33:54;;;;;;;;;;;;;;;22.78;41.17;96705.06;4948776;29;19966;-81
2021/08/09 10:36:21;;;;;;;;;;;;;;;22.96;43.34;96724.84;4939028;28;19981;-81
2021/08/09 10:38:49;;;;;;;;;;;;;;;23.04;41.47;96696.69;4932590;28;19974;-81
2021/08/09 10:41:15;;;;;;;;;;;;;;;23.02;42.50;96698.88;4933195;28;19967;-81
2021/08/09 10:43:59;;;;;;;;;;;;;;;22.95;41.81;96698.38;4934934;29;19998;-81
2021/08/09 10:46:53;;;;;;;;;;;;;;;22.80;43.07;96721.59;4942644;28;19970;-81
2021/08/09 10:49:37;;;;;;;;;;;;;;;22.71;41.94;96696.63;4948269;28;19969;-81
2021/08/09 10:52:03;;;;;;;;;;;;;;;22.74;44.70;96721.97;4945406;28;19983;-81
2021/08/09 10:54:35;;;;;;;;;;;;;;;22.95;40.92;96688.50;4972134;28;19971;-81
2021/08/09 10:57:04;;;;;;;;;;;;;;;23.01;42.22;96700.72;4955622;28;20442;-82
2021/08/09 10:59:40;;;;;;;;;;;;;;;23.17;41.70;96700.50;4931724;28;19966;-81
2021/08/09 11:02:22;;;;;;;;;;;;;;;23.35;43.70;96718.41;4966573;28;19967;-81
2021/08/09 11:05:06;;;;;;;;;;;;;;;23.35;39.87;96683.59;4951692;29;19967;-81
2021/08/09 11:07:32;;;;;;;;;;;;;;;23.57;40.44;96698.22;4973404;28;20370;-82
2021/08/09 11:09:58;;;;;;;;;;;;;;;23.79;41.24;96695.69;4964375;28;19971;-82
2021/08/09 11:12:25;;;;;;;;;;;;;;;23.90;41.13;96701.66;4958936;28;20033;-82
2021/08/09 11:14:51;;;;;;;;;;;;;;;;;;4946499;28;20355;-81
2021/08/09 11:17:16;;;;;;;;;;;;;;;23.88;39.97;96691.22;4942570;28;19968;-81
2021/08/09 11:19:42;;;;;;;;;;;;;;;23.99;41.47;96715.13;4940836;28;19971;-81
2021/08/09 11:22:08;;;;;;;;;;;;;;;23.97;38.92;96701.25;4955122;29;19993;-81
2021/08/09 11:24:34;;;;;;;;;;;;;;;23.88;38.96;96695.78;4959597;28;20001;-81
2021/08/09 11:27:00;;;;;;;;;;;;;;;;;;4946406;28;20446;-81
2021/08/09 11:29:26;;;;;;;;;;;;;;;23.89;41.35;96716.13;4931415;28;19974;-82
2021/08/09 11:31:52;;;;;;;;;;;;;;;23.89;37.70;96700.03;4937755;29;19990;-82
2021/08/09 11:34:18;;;;;;;;;;;;;;;23.78;38.77;96712.03;4943650;28;19992;-81
2021/08/09 11:36:44;;;;;;;;;;;;;;;23.69;39.16;96731.44;4975021;28;19971;-81
2021/08/09 11:39:10;;;;;;;;;;;;;;;23.67;39.34;96724.81;4932397;28;19975;-80
2021/08/09 11:41:36;;;;;;;;;;;;;;;23.65;39.37;96727.78;4953985;29;20339;-80
2021/08/09 11:44:08;;;;;;;;;;;;;;;23.67;37.46;96690.78;4955558;29;19967;-80
2021/08/09 11:46:43;;;;;;;;;;;;;;;23.70;37.26;96695.53;4924074;29;19973;-80
2021/08/09 11:49:09;;;;;;;;;;;;;;;23.71;38.51;96688.31;4951208;28;19970;-80
2021/08/09 11:51:35;;;;;;;;;;;;;;;23.60;38.03;96690.38;4965556;28;20498;-80
2021/08/09 11:54:01;;;;;;;;;;;;;;;23.49;36.20;96679.03;4969654;28;20057;-80
2021/08/09 11:56:34;;;;;;;;;;;;;;;23.52;38.44;96696.41;4939443;29;20359;-79
2021/08/09 11:59:08;;;;;;;;;;;;;;;23.82;37.11;96675.56;4955027;28;19979;-81
2021/08/09 12:01:34;;;;;;;;;;;;;;;24.13;38.72;96702.53;4965551;28;19967;-81
2021/08/09 12:04:02;;;;;;;;;;;;;;;24.32;37.20;96697.06;4932569;29;19978;-82
2021/08/09 12:06:30;;;;;;;;;;;;;;;24.60;37.93;96699.69;4932753;29;19963;-82
2021/08/09 12:08:57;;;;;;;;;;;;;;;24.73;37.95;96693.50;4933618;28;19981;-81
2021/08/09 12:11:24;;;;;;;;;;;;;;;25.04;38.30;96700.84;4947208;28;19978;-82
2021/08/09 12:14:05;;;;;;;;;;;;;;;25.33;38.01;96694.28;4967779;28;19977;-82
2021/08/09 12:16:44;;;;;;;;;;;;;;;25.15;35.89;96688.75;4931217;28;19977;-82
2021/08/09 12:19:13;;;;;;;;;;;;;;;24.76;36.10;96695.59;4930618;29;19993;-81
2021/08/09 12:21:39;;;;;;;;;;;;;;;24.52;36.84;96710.03;4951083;29;20316;-82
2021/08/09 12:24:13;;;;;;;;;;;;;;;24.45;37.56;96706.16;4945859;28;19986;-81
2021/08/09 12:26:39;;;;;;;;;;;;;;;24.55;37.23;96703.28;4965386;28;19974;-81
2021/08/09 12:29:06;;;;;;;;;;;;;;;24.50;38.88;96703.38;4974508;28;19970;-82
2021/08/09 12:31:33;;;;;;;;;;;;;;;24.59;40.19;96714.19;4949049;29;19979;-82
2021/08/09 12:34:00;;;;;;;;;;;;;;;24.77;39.41;96713.25;4945159;28;19967;-82
2021/08/09 12:36:26;;;;;;;;;;;;;;;24.77;37.31;96694.47;4933446;28;20331;-82
2021/08/09 12:38:52;;;;;;;;;;;;;;;24.82;37.12;96698.91;4950039;28;19971;-82
2021/08/09 12:41:25;;;;;;;;;;;;;;;24.78;37.68;96696.06;4932867;28;19971;-82
2021/08/09 12:43:51;;;;;;;;;;;;;;;24.61;37.72;96699.41;4957846;28;19967;-81
2021/08/09 12:46:17;;;;;;;;;;;;;;;24.46;39.46;96718.44;4929195;28;20064;-81
2021/08/09 12:48:49;;;;;;;;;;;;;;;24.37;39.28;96707.66;4950303;29;20434;-81